METAR stanice u blizini

 

LYBE - Beograd / Surčin, Srbija
Ažurirano: 16/07/2024 00:30
Vedro
Vedro
 Pravac vetra I
Vetar: I 7 km/h
Temperatura: 28°C
Heat Index: 30°C
Tačka rose: 22°C
Vlažnost: 70%
Pritisak: 1011 hPa
Pregled: Vedro
Vidljivost: greater than 10 km
2024/07/15 22:30 LYBE 152230Z 10004KT CAVOK 28/22 Q1011 NOSIG
LYBT - Beograd / Batajnica, Srbija
Ažurirano: 16/07/2024 00:30
Vedro
Vedro
 Pravac vetra S
Vetar: S 6 km/h
Temperatura: 26°C
Tačka rose: 23°C
Vlažnost: 84%
Pritisak: 1011 hPa
Pregled: Vedro
Vidljivost: greater than 10 km
2024/07/15 22:30 LYBT 152230Z 36003KT CAVOK 26/23 Q1011 NOSIG
LYVR - Vršac, Srbija
Ažurirano: 16/07/2024 00:30
Vedro
Vedro
 Pravac vetra JI
Vetar: JI 7 km/h
Temperatura: 26°C
Tačka rose: 17°C
Vlažnost: 58%
Pritisak: 1011 hPa
Pregled: Vedro
Vidljivost: greater than 10 km
2024/07/15 22:30 LYVR 152230Z AUTO 14004KT 090V190 CAVOK 26/17 Q1011
 
LYKV - Lađevci, Srbija
Ažurirano: 16/07/2024 00:30
Vedro
Vedro
 Pravac vetra calm
Vetar: Tišina
Temperatura: 22°C
Tačka rose: 18°C
Vlažnost: 78%
Pritisak: 1012 hPa
Pregled: Vedro
Vidljivost: greater than 10 km
2024/07/15 22:30 LYKV 152230Z 00000KT CAVOK 22/18 Q1012 NOSIG
LYNI - Niš, Srbija
Ažurirano: 16/07/2024 00:30
Vedro
Vedro
 Pravac vetra I
Vetar: I 6 km/h
Temperatura: 25°C
Tačka rose: 14°C
Vlažnost: 51%
Pritisak: 1013 hPa
Pregled: Vedro
Vidljivost: greater than 10 km
2024/07/15 22:30 LYNI 152230Z 08003KT CAVOK 25/14 Q1013 NOSIG
BKPR - Priština, Srbija
Ažurirano: 16/07/2024 01:00
Vedro
Vedro
 Pravac vetra JI
Vetar: JI 4 km/h
Temperatura: 22°C
Tačka rose: 16°C
Vlažnost: 69%
Pritisak: 1015 hPa
Pregled: Vedro
Vidljivost: greater than 10 km
2024/07/15 23:00 BKPR 152300Z 14002KT CAVOK 22/16 Q1015 NOSIG
 
LHPP - Pecs / Pogany, Hungary
Ažurirano: 16/07/2024 00:15
Vedro
Vedro
 Pravac vetra SZ
Vetar: SZ 9 km/h
Temperatura: 26°C
Tačka rose: 21°C
Vlažnost: 74%
Pritisak: 1012 hPa
Pregled: Vedro
Vidljivost: greater than 10 km
2024/07/15 22:15 LHPP 152215Z AUTO 31005KT CAVOK 26/21 Q1012
LHUD - Szeged, Hungary
Ažurirano: 04/07/2019 01:45
NOT Current
Vedro
Vedro
 Pravac vetra S
Vetar: S 7 km/h
Temperatura: 18°C
Tačka rose: 13°C
Vlažnost: 73%
Pritisak: 1019 hPa
Pregled: Vedro
Vidljivost: greater than 10 km
2019/07/03 23:45 LHUD 032345Z 35004KT CAVOK 18/13 Q1019
LRTR - Timisoara, Romania
Ažurirano: 16/07/2024 00:30
Vedro
Vedro
 Pravac vetra I
Vetar: I 11 km/h
Temperatura: 25°C
Tačka rose: 19°C
Vlažnost: 69%
Pritisak: 1011 hPa
Pregled: Vedro
Vidljivost: greater than 10 km
2024/07/15 22:30 LRTR 152230Z 10006KT CAVOK 25/19 Q1011 NOSIG
 
LRCV - Craiova, Romania
Ažurirano: 16/07/2024 00:30
Vedro
Vedro
 Pravac vetra SSI
Vetar: SSI 6 km/h
Temperatura: 26°C
Tačka rose: 10°C
Vlažnost: 37%
Pritisak: 1013 hPa
Pregled: Vedro
Vidljivost: greater than 10 km
2024/07/15 22:30 LRCV 152230Z 02003KT 330V050 CAVOK 26/10 Q1013
LBSF - Sofia, Bulgaria
Ažurirano: 16/07/2024 00:30
Vedro
Vedro
 Pravac vetra calm
Vetar: Tišina
Temperatura: 20°C
Tačka rose: 11°C
Vlažnost: 56%
Pritisak: 1016 hPa
Oblaci: Vedro
Vidljivost: 10 km
2024/07/15 22:30 LBSF 152230Z AUTO 00000KT 9999 NCD 20/11 Q1016 NOSIG
LWSK - Skoplje, Makedonija
Ažurirano: 16/07/2024 00:50
Vedro
Vedro
 Pravac vetra JJI
Vetar: JJI 6 km/h
Temperatura: 22°C
Tačka rose: 14°C
Vlažnost: 61%
Pritisak: 1013 hPa
Pregled: Vedro
Vidljivost: greater than 10 km
2024/07/15 22:50 LWSK 152250Z 15003KT CAVOK 22/14 Q1013 NOSIG
 
LYPG - Podgorica, Crna Gora
Ažurirano: 16/07/2024 00:30
Vedro
Vedro
 Pravac vetra S
Vetar: S 4 km/h
Temperatura: 29°C
Heat Index: 32°C
Tačka rose: 23°C
Vlažnost: 70%
Pritisak: 1010 hPa
Pregled: Vedro
Vidljivost: greater than 10 km
2024/07/15 22:30 LYPG 152230Z AUTO 01002KT CAVOK 29/23 Q1010
LQSA - Sarajevo, Bosna i Hercegovina
Ažurirano: 16/07/2024 00:30
Vedro
Vedro
 Pravac vetra IJI
Vetar: IJI 9 km/h
Temperatura: 23°C
Tačka rose: 20°C
Vlažnost: 83%
Pritisak: 1015 hPa
Pregled: Vedro
Vidljivost: greater than 10 km
2024/07/15 22:30 LQSA 152230Z 12005KT 090V160 CAVOK 23/20 Q1015
LDOS - Osijek, Hrvatksa
Ažurirano: 16/07/2024 00:30
Vedro
Vedro
 Pravac vetra Z
Vetar: Z 6 km/h
Temperatura: 25°C
Tačka rose: 24°C
Vlažnost: 94%
Pritisak: 1011 hPa
Pregled: Vedro
Vidljivost: greater than 10 km
2024/07/15 22:30 LDOS 152230Z 28003KT CAVOK 25/24 Q1011